createdAt,value
2023-04-18T00:01:28.805Z,97343.78
2023-04-18T00:03:55.382Z,97338.41
2023-04-18T00:06:22.263Z,97335.16
2023-04-18T00:08:49.047Z,97331.84
2023-04-18T00:11:15.567Z,97324.50
2023-04-18T00:13:42.110Z,97330.78
2023-04-18T00:16:08.744Z,97325.13
2023-04-18T00:18:37.151Z,97328.91
2023-04-18T00:21:04.449Z,97326.69
2023-04-18T00:23:31.111Z,97323.19
2023-04-18T00:25:57.647Z,97316.16
2023-04-18T00:28:24.142Z,97305.09
2023-04-18T00:30:50.747Z,97300.91
2023-04-18T00:33:18.769Z,97300.91
2023-04-18T00:35:45.250Z,97302.97
2023-04-18T00:38:11.651Z,97307.22
2023-04-18T00:40:38.807Z,97304.44
2023-04-18T00:43:07.761Z,97300.84
2023-04-18T00:45:34.313Z,97300.28
2023-04-18T00:48:00.886Z,97303.47
2023-04-18T00:50:27.572Z,97301.00
2023-04-18T00:52:54.620Z,97301.16
2023-04-18T00:55:21.567Z,97301.91
2023-04-18T00:57:48.000Z,97293.72
2023-04-18T01:00:15.174Z,97300.94
2023-04-18T01:02:41.602Z,97297.38
2023-04-18T01:05:08.704Z,97296.81
2023-04-18T01:07:37.640Z,97281.03
2023-04-18T01:10:04.573Z,97287.34
2023-04-18T01:12:31.261Z,97287.13
2023-04-18T01:14:58.759Z,97285.28
2023-04-18T01:17:25.351Z,97283.50
2023-04-18T01:19:51.767Z,97285.66
2023-04-18T01:22:19.912Z,97279.75
2023-04-18T01:24:46.360Z,97272.88
2023-04-18T01:27:13.538Z,97272.41
2023-04-18T01:29:40.763Z,97269.22
2023-04-18T01:32:07.453Z,97267.09
2023-04-18T01:34:33.972Z,97272.06
2023-04-18T01:37:00.653Z,97268.34
2023-04-18T01:39:27.966Z,97268.75
2023-04-18T01:41:54.375Z,97272.69
2023-04-18T01:44:20.815Z,97267.56
2023-04-18T01:46:47.284Z,97269.78
2023-04-18T01:49:13.807Z,97272.72
2023-04-18T01:51:41.037Z,97266.88
2023-04-18T01:54:07.492Z,97267.53
2023-04-18T01:56:33.956Z,97265.47
2023-04-18T01:59:00.613Z,97263.34
2023-04-18T02:01:27.214Z,97259.69
2023-04-18T02:03:53.976Z,97252.97
2023-04-18T02:06:20.687Z,97260.84
2023-04-18T02:08:47.117Z,97254.44
2023-04-18T02:11:13.562Z,97252.16
2023-04-18T02:13:39.960Z,97252.47
2023-04-18T02:16:11.237Z,97253.25
2023-04-18T02:18:40.257Z,97251.91
2023-04-18T02:21:07.182Z,97251.53
2023-04-18T02:23:33.631Z,97250.91
2023-04-18T02:26:00.235Z,97257.75
2023-04-18T02:28:26.662Z,97259.53
2023-04-18T02:30:53.134Z,97255.22
2023-04-18T02:33:19.650Z,97251.22
2023-04-18T02:35:46.112Z,97254.94
2023-04-18T02:38:13.791Z,97254.44
2023-04-18T02:40:40.211Z,97251.66
2023-04-18T02:43:06.672Z,97245.97
2023-04-18T02:45:33.096Z,97242.19
2023-04-18T02:47:59.626Z,97251.00
2023-04-18T02:50:26.948Z,97247.56
2023-04-18T02:52:53.650Z,97246.16
2023-04-18T02:55:21.097Z,97248.31
2023-04-18T02:57:47.758Z,97253.06
2023-04-18T03:00:14.540Z,97252.91
2023-04-18T03:02:41.164Z,97246.28
2023-04-18T03:05:08.075Z,97245.94
2023-04-18T03:07:34.471Z,97237.31
2023-04-18T03:10:00.887Z,97240.66
2023-04-18T03:12:27.319Z,97234.59
2023-04-18T03:14:53.954Z,97239.91
2023-04-18T03:17:20.553Z,97239.19
2023-04-18T03:19:47.030Z,97243.66
2023-04-18T03:22:14.275Z,97236.84
2023-04-18T03:24:40.830Z,97240.59
2023-04-18T03:27:07.360Z,97233.16
2023-04-18T03:29:33.980Z,97244.03
2023-04-18T03:32:00.433Z,97242.63
2023-04-18T03:34:27.294Z,97240.47
2023-04-18T03:36:54.034Z,97240.72
2023-04-18T03:39:20.566Z,97247.72
2023-04-18T03:41:47.090Z,97242.47
2023-04-18T03:44:13.866Z,97237.25
2023-04-18T03:46:40.721Z,97245.25
2023-04-18T03:49:07.128Z,97244.66
2023-04-18T03:51:41.889Z,97240.16
2023-04-18T03:54:08.557Z,97236.03
2023-04-18T03:56:35.659Z,97242.63
2023-04-18T03:59:02.137Z,97231.75
2023-04-18T04:01:28.679Z,97235.84
2023-04-18T04:03:55.247Z,97229.28
2023-04-18T04:06:21.860Z,97229.59
2023-04-18T04:08:48.215Z,97235.84
2023-04-18T04:11:14.607Z,97241.53
2023-04-18T04:13:41.013Z,97253.59
2023-04-18T04:16:07.950Z,97247.44
2023-04-18T04:18:34.379Z,97254.53
2023-04-18T04:21:00.997Z,97249.91
2023-04-18T04:23:27.507Z,97243.81
2023-04-18T04:25:54.621Z,97245.91
2023-04-18T04:28:22.762Z,97247.03
2023-04-18T04:30:53.024Z,97252.53
2023-04-18T04:33:20.284Z,97242.59
2023-04-18T04:35:47.513Z,97252.69
2023-04-18T04:38:15.314Z,97246.53
2023-04-18T04:40:41.892Z,97238.78
2023-04-18T04:43:12.565Z,97245.88
2023-04-18T04:45:41.944Z,97243.16
2023-04-18T04:48:08.948Z,97241.13
2023-04-18T04:50:38.241Z,97235.78
2023-04-18T04:53:06.395Z,97242.19
2023-04-18T04:55:33.113Z,97243.25
2023-04-18T04:57:59.751Z,97235.47
2023-04-18T05:00:26.640Z,97240.22
2023-04-18T05:02:55.243Z,97247.28
2023-04-18T05:05:21.898Z,97250.34
2023-04-18T05:07:48.304Z,97246.00
2023-04-18T05:10:14.849Z,97248.06
2023-04-18T05:12:41.269Z,97251.53
2023-04-18T05:15:08.003Z,97250.16
2023-04-18T05:17:34.755Z,97260.50
2023-04-18T05:20:01.198Z,97258.41
2023-04-18T05:22:27.599Z,97261.34
2023-04-18T05:24:54.062Z,97261.03
2023-04-18T05:27:20.543Z,97268.97
2023-04-18T05:29:47.944Z,97274.16
2023-04-18T05:32:14.681Z,97261.78
2023-04-18T05:34:42.249Z,97267.59
2023-04-18T05:37:09.012Z,97267.38
2023-04-18T05:39:35.500Z,97272.22
2023-04-18T05:42:02.696Z,97260.16
2023-04-18T05:44:29.968Z,97257.16
2023-04-18T05:46:56.380Z,97261.97
2023-04-18T05:49:23.063Z,97263.53
2023-04-18T05:51:49.958Z,97261.78
2023-04-18T05:54:16.905Z,97263.97
2023-04-18T05:56:43.363Z,97260.72
2023-04-18T05:59:09.828Z,97269.69
2023-04-18T06:01:36.306Z,97271.94
2023-04-18T06:04:02.899Z,97270.34
2023-04-18T06:06:29.411Z,97272.16
2023-04-18T06:08:55.868Z,97275.78
2023-04-18T06:11:22.575Z,97278.06
2023-04-18T06:13:49.099Z,97292.25
2023-04-18T06:16:15.585Z,97283.09
2023-04-18T06:18:42.046Z,97291.56
2023-04-18T06:21:08.762Z,97291.28
2023-04-18T06:23:35.261Z,97298.69
2023-04-18T06:26:01.724Z,97291.31
2023-04-18T06:28:28.348Z,97299.09
2023-04-18T06:30:54.793Z,97295.03
2023-04-18T06:33:21.580Z,97289.03
2023-04-18T06:35:48.301Z,97287.00
2023-04-18T06:38:15.106Z,97286.13
2023-04-18T06:40:41.572Z,97282.22
2023-04-18T06:43:08.136Z,97270.53
2023-04-18T06:45:35.453Z,97281.34
2023-04-18T06:48:05.449Z,97284.13
2023-04-18T06:50:32.122Z,97281.63
2023-04-18T06:52:58.675Z,97288.00
2023-04-18T06:55:25.520Z,97284.63
2023-04-18T06:57:52.347Z,97297.09
2023-04-18T07:00:19.237Z,97294.59
2023-04-18T07:02:46.278Z,97283.66
2023-04-18T07:05:13.474Z,97291.69
2023-04-18T07:07:40.253Z,97296.94
2023-04-18T07:10:09.633Z,97294.44
2023-04-18T07:12:36.130Z,97292.31
2023-04-18T07:15:03.755Z,97296.16
2023-04-18T07:17:30.333Z,97293.25
2023-04-18T07:19:56.907Z,97292.44
2023-04-18T07:22:23.572Z,97299.03
2023-04-18T07:24:50.087Z,97300.50
2023-04-18T07:27:16.508Z,97301.72
2023-04-18T07:29:42.978Z,97300.84
2023-04-18T07:32:09.764Z,97304.94
2023-04-18T07:34:37.512Z,97303.69
2023-04-18T07:37:04.034Z,97304.13
2023-04-18T07:39:35.802Z,97310.97
2023-04-18T07:42:04.454Z,97313.75
2023-04-18T07:44:30.979Z,97304.16
2023-04-18T07:46:57.920Z,97309.03
2023-04-18T07:49:24.360Z,97314.31
2023-04-18T07:51:50.825Z,97316.50
2023-04-18T07:54:17.268Z,97313.97
2023-04-18T07:56:43.713Z,97316.56
2023-04-18T07:59:10.152Z,97320.41
2023-04-18T08:01:36.759Z,97326.13
2023-04-18T08:04:03.643Z,97332.91
2023-04-18T08:06:30.165Z,97334.31
2023-04-18T08:08:58.941Z,97329.41
2023-04-18T08:11:25.364Z,97330.16
2023-04-18T08:13:51.818Z,97337.03
2023-04-18T08:16:18.264Z,97328.53
2023-04-18T08:18:44.667Z,97327.38
2023-04-18T08:21:11.341Z,97332.78
2023-04-18T08:23:37.741Z,97325.88
2023-04-18T08:26:04.277Z,97337.84
2023-04-18T08:28:30.724Z,97336.91
2023-04-18T08:30:57.226Z,97336.75
2023-04-18T08:33:24.494Z,97344.19
2023-04-18T08:35:51.525Z,97339.59
2023-04-18T08:38:19.158Z,97341.81
2023-04-18T08:40:46.387Z,97355.13
2023-04-18T08:43:15.043Z,97343.72
2023-04-18T08:45:42.210Z,97345.31
2023-04-18T08:48:15.148Z,97349.38
2023-04-18T08:50:42.042Z,97348.91
2023-04-18T08:53:08.995Z,97344.63
2023-04-18T08:55:35.904Z,97356.28
2023-04-18T08:58:04.889Z,97350.88
2023-04-18T09:00:32.608Z,97353.56
2023-04-18T09:02:59.292Z,97354.66
2023-04-18T09:05:33.156Z,97347.88
2023-04-18T09:08:02.128Z,97360.00
2023-04-18T09:10:36.467Z,97354.63
2023-04-18T09:13:03.532Z,97358.31
2023-04-18T09:15:31.190Z,97353.91
2023-04-18T09:18:00.153Z,97355.81
2023-04-18T09:20:35.997Z,97348.97
2023-04-18T09:23:10.681Z,97353.88
2023-04-18T09:25:45.345Z,97352.69
2023-04-18T09:28:53.824Z,97359.44
2023-04-18T09:31:22.598Z,97355.91
2023-04-18T09:33:54.509Z,97359.72
2023-04-18T09:36:27.405Z,97360.03
2023-04-18T09:38:56.617Z,97362.41
2023-04-18T09:41:24.078Z,97351.78
2023-04-18T09:43:52.097Z,97358.44
2023-04-18T09:46:18.668Z,97364.44
2023-04-18T09:48:45.533Z,97357.59
2023-04-18T09:51:16.315Z,97347.84
2023-04-18T09:53:51.033Z,97345.81
2023-04-18T09:56:28.093Z,97347.84
2023-04-18T09:59:06.261Z,97336.78
2023-04-18T10:01:33.743Z,97347.47
2023-04-18T10:04:03.600Z,97344.78
2023-04-18T10:06:33.410Z,97338.47
2023-04-18T10:09:04.251Z,97338.22
2023-04-18T10:11:32.148Z,97334.19
2023-04-18T10:14:02.585Z,97331.19
2023-04-18T10:16:29.599Z,97331.31
2023-04-18T10:18:56.740Z,97334.81
2023-04-18T10:21:23.423Z,97344.97
2023-04-18T10:23:50.530Z,97337.69
2023-04-18T10:26:17.068Z,97336.56
2023-04-18T10:28:54.886Z,97331.91
2023-04-18T10:31:23.335Z,97341.50
2023-04-18T10:34:04.001Z,97334.63
2023-04-18T10:36:32.399Z,97333.28
2023-04-18T10:39:21.902Z,97330.25
2023-04-18T10:41:50.944Z,97336.22
2023-04-18T10:44:19.983Z,97340.00
2023-04-18T10:46:52.353Z,97344.34
2023-04-18T10:49:31.035Z,97326.31
2023-04-18T10:52:00.446Z,97333.69
2023-04-18T10:54:59.136Z,97348.72
2023-04-18T10:57:37.727Z,97353.03
2023-04-18T11:00:05.586Z,97346.03
2023-04-18T11:02:33.392Z,97348.06
2023-04-18T11:05:02.120Z,97328.88
2023-04-18T11:07:32.600Z,97331.28
2023-04-18T11:09:59.092Z,97334.34
2023-04-18T11:12:30.565Z,97330.59
2023-04-18T11:14:57.132Z,97327.63
2023-04-18T11:17:26.207Z,97321.00
2023-04-18T11:20:11.594Z,97320.09
2023-04-18T11:22:48.704Z,97322.97
2023-04-18T11:25:16.744Z,97328.56
2023-04-18T11:27:45.109Z,97321.66
2023-04-18T11:30:13.976Z,97330.84
2023-04-18T11:32:41.089Z,97329.41
2023-04-18T11:35:12.279Z,97322.91
2023-04-18T11:37:40.712Z,97329.34
2023-04-18T11:40:10.606Z,97327.94
2023-04-18T11:42:39.246Z,97333.13
2023-04-18T11:45:13.069Z,97332.50
2023-04-18T11:47:41.961Z,97323.13
2023-04-18T11:50:10.954Z,97335.16
2023-04-18T11:52:39.118Z,97330.19
2023-04-18T11:55:21.851Z,97341.03
2023-04-18T11:57:56.369Z,97336.69
2023-04-18T12:00:36.984Z,97341.03
2023-04-18T12:03:05.526Z,97344.75
2023-04-18T12:05:34.732Z,97340.22
2023-04-18T12:08:13.221Z,97338.19
2023-04-18T12:10:53.063Z,97324.47
2023-04-18T12:13:25.822Z,97317.94
2023-04-18T12:15:53.040Z,97320.75
2023-04-18T12:18:19.896Z,97324.97
2023-04-18T12:20:52.428Z,97317.53
2023-04-18T12:23:36.016Z,97328.34
2023-04-18T12:26:04.187Z,97319.78
2023-04-18T12:28:31.594Z,97322.88
2023-04-18T12:30:58.883Z,97322.75
2023-04-18T12:33:26.335Z,97316.28
2023-04-18T12:35:53.808Z,97320.16
2023-04-18T12:38:21.526Z,97317.03
2023-04-18T12:40:49.149Z,97315.59
2023-04-18T12:43:16.612Z,97316.91
2023-04-18T12:45:43.283Z,97320.63
2023-04-18T12:48:09.904Z,97327.81
2023-04-18T12:50:36.398Z,97311.75
2023-04-18T12:53:02.928Z,97321.69
2023-04-18T12:55:29.700Z,97321.59
2023-04-18T12:57:56.245Z,97322.84
2023-04-18T13:00:24.192Z,97312.50
2023-04-18T13:02:52.349Z,97333.16
2023-04-18T13:05:20.773Z,97321.88
2023-04-18T13:07:49.367Z,97324.13
2023-04-18T13:10:20.788Z,97317.03
2023-04-18T13:12:49.983Z,97323.97
2023-04-18T13:15:16.861Z,97327.72
2023-04-18T13:17:43.687Z,97330.25
2023-04-18T13:20:12.543Z,97327.91
2023-04-18T13:22:41.272Z,97323.50
2023-04-18T13:25:10.430Z,97323.75
2023-04-18T13:27:41.967Z,97316.78
2023-04-18T13:30:10.682Z,97326.47
2023-04-18T13:32:38.955Z,97319.19
2023-04-18T13:35:08.198Z,97311.31
2023-04-18T13:37:36.828Z,97317.88
2023-04-18T13:40:05.622Z,97320.13
2023-04-18T13:42:39.515Z,97314.50
2023-04-18T13:45:06.286Z,97319.63
2023-04-18T13:47:32.829Z,97313.56
2023-04-18T13:49:59.490Z,97321.72
2023-04-18T13:52:26.146Z,97314.13
2023-04-18T13:54:52.904Z,97317.75
2023-04-18T13:57:19.488Z,97320.53
2023-04-18T13:59:45.996Z,97324.84
2023-04-18T14:02:12.559Z,97318.00
2023-04-18T14:04:39.138Z,97320.03
2023-04-18T14:07:06.330Z,97322.97
2023-04-18T14:09:33.218Z,97322.97
2023-04-18T14:11:59.785Z,97328.94
2023-04-18T14:14:26.262Z,97328.28
2023-04-18T14:16:53.698Z,97325.84
2023-04-18T14:19:20.120Z,97332.41
2023-04-18T14:21:46.687Z,97329.19
2023-04-18T14:24:13.298Z,97318.38
2023-04-18T14:26:39.731Z,97323.38
2023-04-18T14:29:06.274Z,97326.13
2023-04-18T14:31:32.688Z,97322.38
2023-04-18T14:33:59.253Z,97325.16
2023-04-18T14:36:27.163Z,97323.59
2023-04-18T14:38:54.795Z,97315.38
2023-04-18T14:41:21.591Z,97322.56
2023-04-18T14:43:48.326Z,97324.06
2023-04-18T14:46:19.048Z,97327.09
2023-04-18T14:48:48.437Z,97329.31
2023-04-18T14:51:17.196Z,97335.06
2023-04-18T14:53:44.703Z,97319.91
2023-04-18T14:56:11.165Z,97323.19
2023-04-18T14:58:37.673Z,97327.47
2023-04-18T15:01:04.736Z,97328.59
2023-04-18T15:03:31.520Z,97324.56
2023-04-18T15:05:58.196Z,97328.91
2023-04-18T15:08:24.818Z,97330.06
2023-04-18T15:10:51.360Z,97331.03
2023-04-18T15:13:17.787Z,97339.09
2023-04-18T15:15:51.356Z,97341.47
2023-04-18T15:18:17.722Z,97336.34
2023-04-18T15:20:44.141Z,97331.19
2023-04-18T15:23:13.576Z,97334.50
2023-04-18T15:25:41.182Z,97332.50
2023-04-18T15:28:07.730Z,97336.16
2023-04-18T15:30:34.230Z,97337.59
2023-04-18T15:33:04.024Z,97344.88
2023-04-18T15:35:30.650Z,97348.53
2023-04-18T15:37:57.462Z,97338.66
2023-04-18T15:40:24.247Z,97344.66
2023-04-18T15:42:53.527Z,97342.13
2023-04-18T15:45:21.267Z,97346.84
2023-04-18T15:47:47.926Z,97344.09
2023-04-18T15:50:15.941Z,97342.75
2023-04-18T15:52:42.556Z,97343.69
2023-04-18T15:55:11.075Z,97344.38
2023-04-18T15:57:37.563Z,97341.38
2023-04-18T16:00:10.156Z,97342.63
2023-04-18T16:02:37.023Z,97344.81
2023-04-18T16:05:04.401Z,97348.75
2023-04-18T16:07:31.008Z,97350.13
2023-04-18T16:09:57.394Z,97340.81
2023-04-18T16:12:23.885Z,97342.13
2023-04-18T16:14:50.283Z,97348.06
2023-04-18T16:17:16.669Z,97349.78
2023-04-18T16:19:43.064Z,97354.97
2023-04-18T16:22:10.490Z,97352.63
2023-04-18T16:24:36.889Z,97351.41
2023-04-18T16:27:03.843Z,97351.00
2023-04-18T16:29:30.585Z,97350.38
2023-04-18T16:31:57.001Z,97348.47
2023-04-18T16:34:23.530Z,97357.16
2023-04-18T16:36:51.157Z,97348.72
2023-04-18T16:39:18.641Z,97350.72
2023-04-18T16:41:45.243Z,97351.13
2023-04-18T16:44:11.763Z,97356.44
2023-04-18T16:46:38.305Z,97354.94
2023-04-18T16:49:04.868Z,97353.25
2023-04-18T16:51:31.401Z,97356.00
2023-04-18T16:53:57.863Z,97355.00
2023-04-18T16:56:24.344Z,97343.53
2023-04-18T16:58:50.828Z,97352.34
2023-04-18T17:01:17.199Z,97354.34
2023-04-18T17:03:43.808Z,97351.50
2023-04-18T17:06:10.461Z,97349.28
2023-04-18T17:08:36.837Z,97361.59
2023-04-18T17:11:03.333Z,97356.88
2023-04-18T17:13:31.604Z,97357.28
2023-04-18T17:15:58.399Z,97357.91
2023-04-18T17:18:25.046Z,97361.75
2023-04-18T17:20:52.406Z,97364.66
2023-04-18T17:23:18.971Z,97359.69
2023-04-18T17:25:46.103Z,97365.78
2023-04-18T17:28:12.631Z,97380.13
2023-04-18T17:30:41.310Z,97374.53
2023-04-18T17:33:09.323Z,97368.66
2023-04-18T17:35:36.145Z,97373.97
2023-04-18T17:38:03.330Z,97372.06
2023-04-18T17:40:30.023Z,97378.25
2023-04-18T17:42:56.581Z,97378.50
2023-04-18T17:45:23.071Z,97381.25
2023-04-18T17:47:50.813Z,97381.59
2023-04-18T17:50:17.594Z,97387.66
2023-04-18T17:52:45.154Z,97387.59
2023-04-18T17:55:11.616Z,97388.50
2023-04-18T17:57:38.023Z,97392.75
2023-04-18T18:00:10.397Z,97396.22
2023-04-18T18:02:37.520Z,97402.16
2023-04-18T18:05:05.234Z,97400.69
2023-04-18T18:07:34.695Z,97394.06
2023-04-18T18:10:01.532Z,97399.22
2023-04-18T18:12:28.023Z,97403.41
2023-04-18T18:14:54.394Z,97401.31
2023-04-18T18:17:20.950Z,97400.22
2023-04-18T18:19:47.426Z,97406.00
2023-04-18T18:22:13.986Z,97411.31
2023-04-18T18:24:40.429Z,97411.06
2023-04-18T18:27:06.824Z,97411.56
2023-04-18T18:29:33.212Z,97408.78
2023-04-18T18:32:00.202Z,97409.31
2023-04-18T18:34:27.806Z,97416.47
2023-04-18T18:36:54.168Z,97420.81
2023-04-18T18:39:20.881Z,97415.81
2023-04-18T18:41:47.254Z,97420.22
2023-04-18T18:44:13.780Z,97421.84
2023-04-18T18:46:42.092Z,97426.16
2023-04-18T18:49:09.938Z,97426.97
2023-04-18T18:51:37.036Z,97430.13
2023-04-18T18:54:03.455Z,97433.28
2023-04-18T18:56:29.901Z,97426.88
2023-04-18T18:58:56.289Z,97433.34
2023-04-18T19:01:23.323Z,97443.31
2023-04-18T19:03:50.060Z,97432.22
2023-04-18T19:06:16.712Z,97431.19
2023-04-18T19:08:43.142Z,97437.81
2023-04-18T19:11:10.335Z,97433.16
2023-04-18T19:13:36.879Z,97434.44
2023-04-18T19:16:03.338Z,97441.09
2023-04-18T19:18:29.859Z,97446.47
2023-04-18T19:20:56.296Z,97446.47
2023-04-18T19:23:25.110Z,97442.41
2023-04-18T19:25:52.064Z,97445.34
2023-04-18T19:28:18.591Z,97443.47
2023-04-18T19:30:46.365Z,97448.69
2023-04-18T19:33:13.706Z,97445.59
2023-04-18T19:35:40.308Z,97456.97
2023-04-18T19:38:06.745Z,97450.66
2023-04-18T19:40:33.222Z,97456.28
2023-04-18T19:42:59.716Z,97456.06
2023-04-18T19:45:26.177Z,97446.41
2023-04-18T19:47:52.735Z,97459.84
2023-04-18T19:50:19.235Z,97457.19
2023-04-18T19:52:45.664Z,97452.31
2023-04-18T19:55:12.189Z,97450.25
2023-04-18T19:57:39.810Z,97461.78
2023-04-18T20:00:07.600Z,97455.81
2023-04-18T20:02:34.070Z,97452.97
2023-04-18T20:05:00.926Z,97456.19
2023-04-18T20:07:27.610Z,97446.56
2023-04-18T20:09:54.090Z,97455.13
2023-04-18T20:12:20.588Z,97459.84
2023-04-18T20:14:46.984Z,97452.63
2023-04-18T20:17:13.554Z,97454.22
2023-04-18T20:19:39.945Z,97458.59
2023-04-18T20:22:06.443Z,97448.97
2023-04-18T20:24:34.508Z,97449.41
2023-04-18T20:27:01.676Z,97456.50
2023-04-18T20:29:28.295Z,97459.88
2023-04-18T20:31:54.677Z,97457.09
2023-04-18T20:34:21.364Z,97462.63
2023-04-18T20:36:47.860Z,97457.13
2023-04-18T20:39:15.451Z,97460.47
2023-04-18T20:41:48.961Z,97463.31
2023-04-18T20:44:22.110Z,97460.22
2023-04-18T20:46:48.597Z,97458.28
2023-04-18T20:49:15.064Z,97456.22
2023-04-18T20:51:41.658Z,97457.72
2023-04-18T20:54:08.215Z,97468.34
2023-04-18T20:56:36.720Z,97459.75
2023-04-18T20:59:04.738Z,97461.13
2023-04-18T21:01:31.419Z,97464.56
2023-04-18T21:03:58.361Z,97464.72
2023-04-18T21:06:24.856Z,97465.41
2023-04-18T21:08:51.243Z,97472.53
2023-04-18T21:11:17.772Z,97467.59
2023-04-18T21:13:44.129Z,97466.75
2023-04-18T21:16:10.814Z,97467.38
2023-04-18T21:18:37.361Z,97466.19
2023-04-18T21:21:04.759Z,97471.28
2023-04-18T21:23:31.189Z,97478.06
2023-04-18T21:25:57.674Z,97479.50
2023-04-18T21:28:24.021Z,97474.22
2023-04-18T21:30:50.682Z,97474.72
2023-04-18T21:33:17.366Z,97471.59
2023-04-18T21:35:43.716Z,97473.16
2023-04-18T21:38:10.080Z,97484.59
2023-04-18T21:40:37.288Z,97482.34
2023-04-18T21:43:03.710Z,97477.81
2023-04-18T21:45:30.139Z,97476.41
2023-04-18T21:47:56.589Z,97479.00
2023-04-18T21:50:23.086Z,97474.22
2023-04-18T21:52:49.500Z,97481.88
2023-04-18T21:55:17.688Z,97475.44
2023-04-18T21:57:44.134Z,97479.56
2023-04-18T22:00:11.331Z,97478.75
2023-04-18T22:02:38.018Z,97477.34
2023-04-18T22:05:04.972Z,97483.56
2023-04-18T22:07:31.326Z,97475.28
2023-04-18T22:10:05.719Z,97473.72
2023-04-18T22:12:32.708Z,97479.41
2023-04-18T22:14:59.137Z,97479.94
2023-04-18T22:17:26.067Z,97475.22
2023-04-18T22:19:53.566Z,97479.34
2023-04-18T22:22:19.933Z,97469.94
2023-04-18T22:24:47.640Z,97476.44
2023-04-18T22:27:14.365Z,97471.00
2023-04-18T22:29:40.932Z,97477.81
2023-04-18T22:32:07.367Z,97479.28
2023-04-18T22:34:33.904Z,97476.50
2023-04-18T22:37:00.600Z,97480.44
2023-04-18T22:39:27.117Z,97480.16
2023-04-18T22:41:53.513Z,97476.78
2023-04-18T22:44:19.971Z,97478.53
2023-04-18T22:46:48.161Z,97488.78
2023-04-18T22:49:14.835Z,97479.84
2023-04-18T22:51:42.165Z,97487.72
2023-04-18T22:54:08.589Z,97484.06
2023-04-18T22:56:34.973Z,97483.44
2023-04-18T22:59:01.477Z,97481.56
2023-04-18T23:01:27.994Z,97482.53
2023-04-18T23:03:54.684Z,97486.88
2023-04-18T23:06:21.345Z,97484.22
2023-04-18T23:08:47.879Z,97492.44
2023-04-18T23:11:14.362Z,97487.53
2023-04-18T23:13:40.750Z,97487.78
2023-04-18T23:16:07.745Z,97496.25
2023-04-18T23:18:34.308Z,97489.66
2023-04-18T23:21:01.005Z,97485.88
2023-04-18T23:23:27.426Z,97494.47
2023-04-18T23:25:53.864Z,97488.06
2023-04-18T23:28:20.338Z,97489.06
2023-04-18T23:30:48.073Z,97483.94
2023-04-18T23:33:14.457Z,97483.97
2023-04-18T23:35:40.959Z,97487.09
2023-04-18T23:38:07.353Z,97485.69
2023-04-18T23:40:34.037Z,97488.06
2023-04-18T23:43:01.379Z,97486.91
2023-04-18T23:45:28.753Z,97487.44
2023-04-18T23:47:55.458Z,97481.50
2023-04-18T23:50:21.922Z,97477.06
2023-04-18T23:52:48.358Z,97477.06
2023-04-18T23:55:14.783Z,97475.88
2023-04-18T23:57:41.169Z,97472.50
